sensor_id;sensor_type;location;lat;lon;timestamp;P1;durP1;ratioP1;P2;durP2;ratioP2
11008;SDS011;5557;51.670;7.788;2023-05-10T00:02:04;40.77;;;22.00;;
11008;SDS011;5557;51.670;7.788;2023-05-10T00:04:32;36.53;;;21.10;;
11008;SDS011;5557;51.670;7.788;2023-05-10T00:06:59;25.43;;;16.57;;
11008;SDS011;5557;51.670;7.788;2023-05-10T00:09:26;22.83;;;15.60;;
11008;SDS011;5557;51.670;7.788;2023-05-10T00:11:53;22.73;;;15.37;;
11008;SDS011;5557;51.670;7.788;2023-05-10T00:14:20;18.07;;;13.93;;
11008;SDS011;5557;51.670;7.788;2023-05-10T00:16:47;28.23;;;13.23;;
11008;SDS011;5557;51.670;7.788;2023-05-10T00:19:14;16.53;;;12.47;;
11008;SDS011;5557;51.670;7.788;2023-05-10T00:21:41;12.87;;;11.27;;
11008;SDS011;5557;51.670;7.788;2023-05-10T00:24:08;17.30;;;11.60;;
11008;SDS011;5557;51.670;7.788;2023-05-10T00:26:35;14.33;;;12.20;;
11008;SDS011;5557;51.670;7.788;2023-05-10T00:29:02;10.57;;;9.57;;
11008;SDS011;5557;51.670;7.788;2023-05-10T00:31:29;9.43;;;8.53;;
11008;SDS011;5557;51.670;7.788;2023-05-10T00:33:55;9.60;;;8.63;;
11008;SDS011;5557;51.670;7.788;2023-05-10T00:36:22;8.87;;;8.07;;
11008;SDS011;5557;51.670;7.788;2023-05-10T00:38:49;9.40;;;8.50;;
11008;SDS011;5557;51.670;7.788;2023-05-10T00:41:16;8.63;;;7.77;;
11008;SDS011;5557;51.670;7.788;2023-05-10T00:43:43;7.10;;;6.60;;
11008;SDS011;5557;51.670;7.788;2023-05-10T00:46:10;8.53;;;7.33;;
11008;SDS011;5557;51.670;7.788;2023-05-10T00:48:37;7.50;;;6.90;;
11008;SDS011;5557;51.670;7.788;2023-05-10T00:51:04;7.93;;;7.13;;
11008;SDS011;5557;51.670;7.788;2023-05-10T00:53:32;8.63;;;7.83;;
11008;SDS011;5557;51.670;7.788;2023-05-10T00:56:01;7.73;;;7.00;;
11008;SDS011;5557;51.670;7.788;2023-05-10T00:58:29;8.47;;;7.67;;
11008;SDS011;5557;51.670;7.788;2023-05-10T01:00:57;8.40;;;7.60;;
11008;SDS011;5557;51.670;7.788;2023-05-10T01:03:25;7.17;;;6.60;;
11008;SDS011;5557;51.670;7.788;2023-05-10T01:05:52;7.60;;;6.80;;
11008;SDS011;5557;51.670;7.788;2023-05-10T01:08:19;7.87;;;7.13;;
11008;SDS011;5557;51.670;7.788;2023-05-10T01:10:46;7.10;;;6.50;;
11008;SDS011;5557;51.670;7.788;2023-05-10T01:13:18;8.13;;;6.47;;
11008;SDS011;5557;51.670;7.788;2023-05-10T01:16:00;6.70;;;6.03;;
11008;SDS011;5557;51.670;7.788;2023-05-10T01:18:29;7.03;;;6.53;;
11008;SDS011;5557;51.670;7.788;2023-05-10T01:21:09;6.10;;;5.70;;
11008;SDS011;5557;51.670;7.788;2023-05-10T01:24:12;7.67;;;7.03;;
11008;SDS011;5557;51.670;7.788;2023-05-10T01:36:45;9.90;;;9.20;;
11008;SDS011;5557;51.670;7.788;2023-05-10T01:39:20;10.27;;;9.47;;
11008;SDS011;5557;51.670;7.788;2023-05-10T01:41:56;8.70;;;7.83;;
11008;SDS011;5557;51.670;7.788;2023-05-10T01:44:38;8.23;;;7.57;;
11008;SDS011;5557;51.670;7.788;2023-05-10T01:47:54;6.70;;;6.30;;
11008;SDS011;5557;51.670;7.788;2023-05-10T01:50:45;6.40;;;6.00;;
11008;SDS011;5557;51.670;7.788;2023-05-10T01:53:14;10.90;;;5.57;;
11008;SDS011;5557;51.670;7.788;2023-05-10T01:55:46;6.13;;;5.73;;
11008;SDS011;5557;51.670;7.788;2023-05-10T01:58:15;7.33;;;5.40;;
11008;SDS011;5557;51.670;7.788;2023-05-10T02:00:47;6.20;;;5.70;;
11008;SDS011;5557;51.670;7.788;2023-05-10T02:03:16;5.53;;;5.13;;
11008;SDS011;5557;51.670;7.788;2023-05-10T02:05:46;6.50;;;6.00;;
11008;SDS011;5557;51.670;7.788;2023-05-10T02:08:15;6.10;;;5.70;;
11008;SDS011;5557;51.670;7.788;2023-05-10T02:10:45;6.30;;;5.83;;
11008;SDS011;5557;51.670;7.788;2023-05-10T02:13:12;6.47;;;5.97;;
11008;SDS011;5557;51.670;7.788;2023-05-10T02:15:41;7.17;;;6.53;;
11008;SDS011;5557;51.670;7.788;2023-05-10T02:18:10;6.27;;;5.87;;
11008;SDS011;5557;51.670;7.788;2023-05-10T02:20:37;6.80;;;6.20;;
11008;SDS011;5557;51.670;7.788;2023-05-10T02:23:05;7.97;;;7.17;;
11008;SDS011;5557;51.670;7.788;2023-05-10T02:25:34;7.40;;;6.80;;
11008;SDS011;5557;51.670;7.788;2023-05-10T02:28:02;7.07;;;6.43;;
11008;SDS011;5557;51.670;7.788;2023-05-10T02:30:31;7.63;;;6.77;;
11008;SDS011;5557;51.670;7.788;2023-05-10T02:33:00;6.60;;;6.00;;
11008;SDS011;5557;51.670;7.788;2023-05-10T02:35:30;7.77;;;6.97;;
11008;SDS011;5557;51.670;7.788;2023-05-10T02:37:59;6.53;;;6.03;;
11008;SDS011;5557;51.670;7.788;2023-05-10T02:40:27;7.97;;;7.37;;
11008;SDS011;5557;51.670;7.788;2023-05-10T02:42:55;7.10;;;6.07;;
11008;SDS011;5557;51.670;7.788;2023-05-10T02:45:24;5.10;;;4.70;;
11008;SDS011;5557;51.670;7.788;2023-05-10T02:47:55;4.90;;;4.43;;
11008;SDS011;5557;51.670;7.788;2023-05-10T02:50:23;4.43;;;3.87;;
11008;SDS011;5557;51.670;7.788;2023-05-10T02:52:54;3.93;;;3.63;;
11008;SDS011;5557;51.670;7.788;2023-05-10T02:55:26;3.53;;;3.33;;
11008;SDS011;5557;51.670;7.788;2023-05-10T02:57:59;3.30;;;3.10;;
11008;SDS011;5557;51.670;7.788;2023-05-10T03:00:28;4.20;;;2.43;;
11008;SDS011;5557;51.670;7.788;2023-05-10T03:02:55;4.10;;;3.80;;
11008;SDS011;5557;51.670;7.788;2023-05-10T03:05:22;3.90;;;3.60;;
11008;SDS011;5557;51.670;7.788;2023-05-10T03:07:49;5.00;;;4.70;;
11008;SDS011;5557;51.670;7.788;2023-05-10T03:10:17;5.20;;;4.67;;
11008;SDS011;5557;51.670;7.788;2023-05-10T03:12:57;5.97;;;5.40;;
11008;SDS011;5557;51.670;7.788;2023-05-10T03:18:30;4.10;;;3.90;;
11008;SDS011;5557;51.670;7.788;2023-05-10T03:21:04;3.60;;;3.50;;
11008;SDS011;5557;51.670;7.788;2023-05-10T03:23:36;3.17;;;2.97;;
11008;SDS011;5557;51.670;7.788;2023-05-10T03:26:24;2.40;;;2.30;;
11008;SDS011;5557;51.670;7.788;2023-05-10T03:28:52;2.20;;;2.10;;
11008;SDS011;5557;51.670;7.788;2023-05-10T03:31:20;3.10;;;2.90;;
11008;SDS011;5557;51.670;7.788;2023-05-10T03:33:48;2.70;;;2.60;;
11008;SDS011;5557;51.670;7.788;2023-05-10T03:36:15;3.57;;;3.30;;
11008;SDS011;5557;51.670;7.788;2023-05-10T03:38:43;4.20;;;3.20;;
11008;SDS011;5557;51.670;7.788;2023-05-10T03:41:10;2.90;;;2.80;;
11008;SDS011;5557;51.670;7.788;2023-05-10T03:43:37;5.70;;;2.43;;
11008;SDS011;5557;51.670;7.788;2023-05-10T03:46:04;2.27;;;2.17;;
11008;SDS011;5557;51.670;7.788;2023-05-10T03:48:32;2.93;;;2.73;;
11008;SDS011;5557;51.670;7.788;2023-05-10T03:50:59;2.37;;;2.17;;
11008;SDS011;5557;51.670;7.788;2023-05-10T03:53:26;2.40;;;2.20;;
11008;SDS011;5557;51.670;7.788;2023-05-10T03:55:53;2.57;;;2.47;;
11008;SDS011;5557;51.670;7.788;2023-05-10T03:58:20;2.60;;;2.40;;
11008;SDS011;5557;51.670;7.788;2023-05-10T04:00:48;7.03;;;2.40;;
11008;SDS011;5557;51.670;7.788;2023-05-10T04:03:14;3.77;;;2.57;;
11008;SDS011;5557;51.670;7.788;2023-05-10T04:05:42;2.70;;;2.40;;
11008;SDS011;5557;51.670;7.788;2023-05-10T04:08:08;2.60;;;2.40;;
11008;SDS011;5557;51.670;7.788;2023-05-10T04:10:35;2.80;;;2.70;;
11008;SDS011;5557;51.670;7.788;2023-05-10T04:13:02;2.63;;;2.50;;
11008;SDS011;5557;51.670;7.788;2023-05-10T04:15:29;2.53;;;2.43;;
11008;SDS011;5557;51.670;7.788;2023-05-10T04:17:56;3.00;;;2.80;;
11008;SDS011;5557;51.670;7.788;2023-05-10T04:20:23;2.63;;;2.40;;
11008;SDS011;5557;51.670;7.788;2023-05-10T04:22:50;3.30;;;2.53;;
11008;SDS011;5557;51.670;7.788;2023-05-10T04:25:17;6.13;;;2.40;;
11008;SDS011;5557;51.670;7.788;2023-05-10T04:27:44;2.90;;;2.80;;
11008;SDS011;5557;51.670;7.788;2023-05-10T04:30:11;2.60;;;2.50;;
11008;SDS011;5557;51.670;7.788;2023-05-10T04:32:38;2.43;;;2.33;;
11008;SDS011;5557;51.670;7.788;2023-05-10T04:35:05;2.70;;;2.50;;
11008;SDS011;5557;51.670;7.788;2023-05-10T04:37:32;2.40;;;2.20;;
11008;SDS011;5557;51.670;7.788;2023-05-10T04:39:59;2.47;;;2.37;;
11008;SDS011;5557;51.670;7.788;2023-05-10T04:42:26;6.27;;;2.70;;
11008;SDS011;5557;51.670;7.788;2023-05-10T04:44:53;2.67;;;2.47;;
11008;SDS011;5557;51.670;7.788;2023-05-10T04:47:20;2.57;;;2.47;;
11008;SDS011;5557;51.670;7.788;2023-05-10T04:49:47;3.20;;;3.00;;
11008;SDS011;5557;51.670;7.788;2023-05-10T04:52:14;3.00;;;2.90;;
11008;SDS011;5557;51.670;7.788;2023-05-10T04:54:43;3.27;;;3.17;;
11008;SDS011;5557;51.670;7.788;2023-05-10T04:57:10;3.93;;;3.70;;
11008;SDS011;5557;51.670;7.788;2023-05-10T04:59:37;3.60;;;3.40;;
11008;SDS011;5557;51.670;7.788;2023-05-10T05:02:04;4.00;;;3.63;;
11008;SDS011;5557;51.670;7.788;2023-05-10T05:04:31;4.37;;;3.93;;
11008;SDS011;5557;51.670;7.788;2023-05-10T05:06:59;5.20;;;4.73;;
11008;SDS011;5557;51.670;7.788;2023-05-10T05:09:26;4.80;;;4.50;;
11008;SDS011;5557;51.670;7.788;2023-05-10T05:11:53;6.47;;;5.90;;
11008;SDS011;5557;51.670;7.788;2023-05-10T05:14:20;6.90;;;5.77;;
11008;SDS011;5557;51.670;7.788;2023-05-10T05:16:47;6.30;;;5.70;;
11008;SDS011;5557;51.670;7.788;2023-05-10T05:19:14;7.50;;;6.10;;
11008;SDS011;5557;51.670;7.788;2023-05-10T05:21:41;7.63;;;6.83;;
11008;SDS011;5557;51.670;7.788;2023-05-10T05:24:08;8.97;;;7.30;;
11008;SDS011;5557;51.670;7.788;2023-05-10T05:26:36;12.77;;;8.00;;
11008;SDS011;5557;51.670;7.788;2023-05-10T05:29:03;13.73;;;8.90;;
11008;SDS011;5557;51.670;7.788;2023-05-10T05:31:30;11.43;;;9.23;;
11008;SDS011;5557;51.670;7.788;2023-05-10T05:33:57;14.93;;;9.90;;
11008;SDS011;5557;51.670;7.788;2023-05-10T05:36:24;13.80;;;9.83;;
11008;SDS011;5557;51.670;7.788;2023-05-10T05:38:51;16.60;;;11.27;;
11008;SDS011;5557;51.670;7.788;2023-05-10T05:41:18;19.33;;;12.37;;
11008;SDS011;5557;51.670;7.788;2023-05-10T05:43:46;18.47;;;12.20;;
11008;SDS011;5557;51.670;7.788;2023-05-10T05:46:13;20.27;;;13.67;;
11008;SDS011;5557;51.670;7.788;2023-05-10T05:48:40;17.60;;;14.10;;
11008;SDS011;5557;51.670;7.788;2023-05-10T05:51:07;22.67;;;14.87;;
11008;SDS011;5557;51.670;7.788;2023-05-10T05:53:34;24.33;;;14.80;;
11008;SDS011;5557;51.670;7.788;2023-05-10T05:56:01;20.90;;;15.13;;
11008;SDS011;5557;51.670;7.788;2023-05-10T05:58:28;26.47;;;15.60;;
11008;SDS011;5557;51.670;7.788;2023-05-10T06:00:55;22.80;;;15.97;;
11008;SDS011;5557;51.670;7.788;2023-05-10T06:03:22;36.90;;;22.70;;
11008;SDS011;5557;51.670;7.788;2023-05-10T06:05:49;27.63;;;16.90;;
11008;SDS011;5557;51.670;7.788;2023-05-10T06:08:16;31.77;;;17.90;;
11008;SDS011;5557;51.670;7.788;2023-05-10T06:10:43;29.10;;;16.70;;
11008;SDS011;5557;51.670;7.788;2023-05-10T06:13:10;26.87;;;16.50;;
11008;SDS011;5557;51.670;7.788;2023-05-10T06:15:37;30.50;;;18.80;;
11008;SDS011;5557;51.670;7.788;2023-05-10T06:18:04;28.87;;;16.40;;
11008;SDS011;5557;51.670;7.788;2023-05-10T06:20:32;28.63;;;18.00;;
11008;SDS011;5557;51.670;7.788;2023-05-10T06:22:59;28.20;;;16.93;;
11008;SDS011;5557;51.670;7.788;2023-05-10T06:25:26;33.40;;;17.07;;
11008;SDS011;5557;51.670;7.788;2023-05-10T06:27:53;29.33;;;18.13;;
11008;SDS011;5557;51.670;7.788;2023-05-10T06:30:24;31.40;;;18.27;;
11008;SDS011;5557;51.670;7.788;2023-05-10T06:32:54;31.67;;;18.43;;
11008;SDS011;5557;51.670;7.788;2023-05-10T06:35:21;39.20;;;21.20;;
11008;SDS011;5557;51.670;7.788;2023-05-10T06:37:48;41.47;;;21.63;;
11008;SDS011;5557;51.670;7.788;2023-05-10T06:40:16;47.73;;;24.47;;
11008;SDS011;5557;51.670;7.788;2023-05-10T06:42:43;45.90;;;24.37;;
11008;SDS011;5557;51.670;7.788;2023-05-10T06:45:11;42.60;;;24.20;;
11008;SDS011;5557;51.670;7.788;2023-05-10T06:47:39;44.53;;;25.13;;
11008;SDS011;5557;51.670;7.788;2023-05-10T06:50:06;45.87;;;24.67;;
11008;SDS011;5557;51.670;7.788;2023-05-10T06:52:34;55.17;;;27.37;;
11008;SDS011;5557;51.670;7.788;2023-05-10T06:55:02;51.63;;;27.40;;
11008;SDS011;5557;51.670;7.788;2023-05-10T06:57:31;52.77;;;27.43;;
11008;SDS011;5557;51.670;7.788;2023-05-10T06:59:58;51.37;;;29.00;;
11008;SDS011;5557;51.670;7.788;2023-05-10T07:02:25;57.13;;;30.63;;
11008;SDS011;5557;51.670;7.788;2023-05-10T07:04:52;57.63;;;28.93;;
11008;SDS011;5557;51.670;7.788;2023-05-10T07:07:20;53.07;;;27.80;;
11008;SDS011;5557;51.670;7.788;2023-05-10T07:09:47;63.73;;;28.57;;
11008;SDS011;5557;51.670;7.788;2023-05-10T07:12:16;61.97;;;32.40;;
11008;SDS011;5557;51.670;7.788;2023-05-10T07:14:43;52.20;;;28.20;;
11008;SDS011;5557;51.670;7.788;2023-05-10T07:17:10;60.63;;;29.73;;
11008;SDS011;5557;51.670;7.788;2023-05-10T07:19:37;57.93;;;30.90;;
11008;SDS011;5557;51.670;7.788;2023-05-10T07:22:04;58.63;;;29.77;;
11008;SDS011;5557;51.670;7.788;2023-05-10T07:24:31;55.30;;;27.77;;
11008;SDS011;5557;51.670;7.788;2023-05-10T07:26:59;53.80;;;29.83;;
11008;SDS011;5557;51.670;7.788;2023-05-10T07:29:26;51.80;;;28.00;;
11008;SDS011;5557;51.670;7.788;2023-05-10T07:31:53;43.20;;;26.30;;
11008;SDS011;5557;51.670;7.788;2023-05-10T07:34:23;48.07;;;26.33;;
11008;SDS011;5557;51.670;7.788;2023-05-10T07:36:51;49.30;;;25.70;;
11008;SDS011;5557;51.670;7.788;2023-05-10T07:39:18;43.97;;;27.53;;
11008;SDS011;5557;51.670;7.788;2023-05-10T07:41:54;40.30;;;24.37;;
11008;SDS011;5557;51.670;7.788;2023-05-10T07:44:21;40.10;;;24.57;;
11008;SDS011;5557;51.670;7.788;2023-05-10T07:46:49;38.40;;;23.40;;
11008;SDS011;5557;51.670;7.788;2023-05-10T07:49:16;32.60;;;20.23;;
11008;SDS011;5557;51.670;7.788;2023-05-10T07:51:43;31.57;;;19.40;;
11008;SDS011;5557;51.670;7.788;2023-05-10T07:54:10;35.70;;;20.80;;
11008;SDS011;5557;51.670;7.788;2023-05-10T07:56:37;29.20;;;19.43;;
11008;SDS011;5557;51.670;7.788;2023-05-10T07:59:06;31.60;;;19.10;;
11008;SDS011;5557;51.670;7.788;2023-05-10T08:01:35;27.20;;;18.93;;
11008;SDS011;5557;51.670;7.788;2023-05-10T08:04:02;25.30;;;17.90;;
11008;SDS011;5557;51.670;7.788;2023-05-10T08:06:29;23.17;;;16.90;;
11008;SDS011;5557;51.670;7.788;2023-05-10T08:08:56;20.40;;;16.63;;
11008;SDS011;5557;51.670;7.788;2023-05-10T08:11:23;22.10;;;15.30;;
11008;SDS011;5557;51.670;7.788;2023-05-10T08:13:51;28.33;;;16.90;;
11008;SDS011;5557;51.670;7.788;2023-05-10T08:16:19;19.83;;;15.53;;
11008;SDS011;5557;51.670;7.788;2023-05-10T08:18:46;25.30;;;18.33;;
11008;SDS011;5557;51.670;7.788;2023-05-10T08:21:14;20.63;;;15.80;;
11008;SDS011;5557;51.670;7.788;2023-05-10T08:23:42;22.23;;;17.57;;
11008;SDS011;5557;51.670;7.788;2023-05-10T08:26:10;21.30;;;15.90;;
11008;SDS011;5557;51.670;7.788;2023-05-10T08:28:37;20.77;;;15.63;;
11008;SDS011;5557;51.670;7.788;2023-05-10T08:31:04;17.43;;;14.87;;
11008;SDS011;5557;51.670;7.788;2023-05-10T08:33:31;24.07;;;17.40;;
11008;SDS011;5557;51.670;7.788;2023-05-10T08:35:58;24.20;;;18.20;;
11008;SDS011;5557;51.670;7.788;2023-05-10T08:38:25;25.17;;;19.97;;
11008;SDS011;5557;51.670;7.788;2023-05-10T08:40:53;25.00;;;19.87;;
11008;SDS011;5557;51.670;7.788;2023-05-10T08:43:28;23.17;;;20.20;;
11008;SDS011;5557;51.670;7.788;2023-05-10T08:45:56;27.40;;;20.40;;
11008;SDS011;5557;51.670;7.788;2023-05-10T08:48:26;25.30;;;19.87;;
11008;SDS011;5557;51.670;7.788;2023-05-10T08:50:55;31.30;;;21.20;;
11008;SDS011;5557;51.670;7.788;2023-05-10T08:53:27;27.90;;;20.10;;
11008;SDS011;5557;51.670;7.788;2023-05-10T08:55:57;22.87;;;17.90;;
11008;SDS011;5557;51.670;7.788;2023-05-10T08:58:24;25.20;;;18.43;;
11008;SDS011;5557;51.670;7.788;2023-05-10T09:00:51;23.90;;;19.00;;
11008;SDS011;5557;51.670;7.788;2023-05-10T09:03:19;31.53;;;21.27;;
11008;SDS011;5557;51.670;7.788;2023-05-10T09:05:47;31.60;;;21.33;;
11008;SDS011;5557;51.670;7.788;2023-05-10T09:08:15;26.50;;;20.57;;
11008;SDS011;5557;51.670;7.788;2023-05-10T09:10:45;28.30;;;21.30;;
11008;SDS011;5557;51.670;7.788;2023-05-10T09:13:14;28.93;;;22.00;;
11008;SDS011;5557;51.670;7.788;2023-05-10T09:15:43;28.90;;;21.10;;
11008;SDS011;5557;51.670;7.788;2023-05-10T09:18:11;37.10;;;21.30;;
11008;SDS011;5557;51.670;7.788;2023-05-10T09:20:38;26.10;;;21.00;;
11008;SDS011;5557;51.670;7.788;2023-05-10T09:23:06;26.03;;;19.37;;
11008;SDS011;5557;51.670;7.788;2023-05-10T09:25:34;23.07;;;20.20;;
11008;SDS011;5557;51.670;7.788;2023-05-10T09:28:01;26.67;;;20.90;;
11008;SDS011;5557;51.670;7.788;2023-05-10T09:30:29;28.33;;;22.80;;
11008;SDS011;5557;51.670;7.788;2023-05-10T09:32:58;33.80;;;23.37;;
11008;SDS011;5557;51.670;7.788;2023-05-10T09:35:29;30.70;;;22.80;;
11008;SDS011;5557;51.670;7.788;2023-05-10T09:38:00;28.13;;;21.27;;
11008;SDS011;5557;51.670;7.788;2023-05-10T09:40:29;26.10;;;19.83;;
11008;SDS011;5557;51.670;7.788;2023-05-10T09:42:58;26.47;;;22.47;;
11008;SDS011;5557;51.670;7.788;2023-05-10T09:45:30;28.30;;;21.10;;
11008;SDS011;5557;51.670;7.788;2023-05-10T09:48:01;35.83;;;23.60;;
11008;SDS011;5557;51.670;7.788;2023-05-10T09:50:29;30.10;;;22.37;;
11008;SDS011;5557;51.670;7.788;2023-05-10T09:53:00;32.67;;;23.67;;
11008;SDS011;5557;51.670;7.788;2023-05-10T09:58:23;32.17;;;24.27;;
11008;SDS011;5557;51.670;7.788;2023-05-10T10:00:50;41.47;;;24.83;;
11008;SDS011;5557;51.670;7.788;2023-05-10T10:03:19;36.67;;;24.77;;
11008;SDS011;5557;51.670;7.788;2023-05-10T10:05:47;33.87;;;24.40;;
11008;SDS011;5557;51.670;7.788;2023-05-10T10:08:15;30.87;;;22.20;;
11008;SDS011;5557;51.670;7.788;2023-05-10T10:10:42;34.77;;;22.13;;
11008;SDS011;5557;51.670;7.788;2023-05-10T10:13:13;44.03;;;24.33;;
11008;SDS011;5557;51.670;7.788;2023-05-10T10:15:40;36.63;;;24.30;;
11008;SDS011;5557;51.670;7.788;2023-05-10T10:18:13;37.77;;;26.30;;
11008;SDS011;5557;51.670;7.788;2023-05-10T10:20:43;37.77;;;25.30;;
11008;SDS011;5557;51.670;7.788;2023-05-10T10:23:10;39.73;;;26.20;;
11008;SDS011;5557;51.670;7.788;2023-05-10T10:25:38;44.90;;;26.00;;
11008;SDS011;5557;51.670;7.788;2023-05-10T10:28:11;51.33;;;30.43;;
11008;SDS011;5557;51.670;7.788;2023-05-10T10:30:53;46.03;;;27.20;;
11008;SDS011;5557;51.670;7.788;2023-05-10T10:36:45;49.80;;;29.23;;
11008;SDS011;5557;51.670;7.788;2023-05-10T10:39:16;49.60;;;31.10;;
11008;SDS011;5557;51.670;7.788;2023-05-10T10:41:51;47.53;;;31.23;;
11008;SDS011;5557;51.670;7.788;2023-05-10T10:44:22;56.83;;;33.10;;
11008;SDS011;5557;51.670;7.788;2023-05-10T10:50:03;50.57;;;31.40;;
11008;SDS011;5557;51.670;7.788;2023-05-10T10:52:38;44.10;;;27.60;;
11008;SDS011;5557;51.670;7.788;2023-05-10T10:55:19;49.57;;;29.40;;
11008;SDS011;5557;51.670;7.788;2023-05-10T10:57:52;40.40;;;27.53;;
11008;SDS011;5557;51.670;7.788;2023-05-10T11:00:37;40.80;;;24.10;;
11008;SDS011;5557;51.670;7.788;2023-05-10T11:03:10;31.83;;;21.87;;
11008;SDS011;5557;51.670;7.788;2023-05-10T11:11:09;22.33;;;16.43;;
11008;SDS011;5557;51.670;7.788;2023-05-10T11:13:43;16.20;;;14.00;;
11008;SDS011;5557;51.670;7.788;2023-05-10T11:16:23;24.60;;;14.23;;
11008;SDS011;5557;51.670;7.788;2023-05-10T11:19:10;21.40;;;13.77;;
11008;SDS011;5557;51.670;7.788;2023-05-10T11:21:49;17.60;;;13.90;;
11008;SDS011;5557;51.670;7.788;2023-05-10T11:24:19;18.97;;;13.50;;
11008;SDS011;5557;51.670;7.788;2023-05-10T11:26:51;16.70;;;12.07;;
11008;SDS011;5557;51.670;7.788;2023-05-10T11:29:20;13.27;;;11.67;;
11008;SDS011;5557;51.670;7.788;2023-05-10T11:31:47;12.90;;;11.20;;
11008;SDS011;5557;51.670;7.788;2023-05-10T11:36:52;12.33;;;10.90;;
11008;SDS011;5557;51.670;7.788;2023-05-10T11:39:20;11.27;;;10.27;;
11008;SDS011;5557;51.670;7.788;2023-05-10T11:41:48;12.50;;;9.20;;
11008;SDS011;5557;51.670;7.788;2023-05-10T11:44:16;13.70;;;10.70;;
11008;SDS011;5557;51.670;7.788;2023-05-10T11:46:43;14.00;;;10.40;;
11008;SDS011;5557;51.670;7.788;2023-05-10T11:49:10;17.77;;;12.80;;
11008;SDS011;5557;51.670;7.788;2023-05-10T11:51:37;21.63;;;13.83;;
11008;SDS011;5557;51.670;7.788;2023-05-10T11:54:06;19.53;;;14.20;;
11008;SDS011;5557;51.670;7.788;2023-05-10T11:56:37;27.57;;;16.37;;
11008;SDS011;5557;51.670;7.788;2023-05-10T11:59:05;28.80;;;18.30;;
11008;SDS011;5557;51.670;7.788;2023-05-10T12:01:34;33.40;;;19.57;;
11008;SDS011;5557;51.670;7.788;2023-05-10T12:04:01;32.40;;;19.50;;
11008;SDS011;5557;51.670;7.788;2023-05-10T12:06:30;34.80;;;21.90;;
11008;SDS011;5557;51.670;7.788;2023-05-10T12:08:58;27.63;;;20.40;;
11008;SDS011;5557;51.670;7.788;2023-05-10T12:11:26;28.87;;;18.00;;
11008;SDS011;5557;51.670;7.788;2023-05-10T12:13:54;25.10;;;17.73;;
11008;SDS011;5557;51.670;7.788;2023-05-10T12:16:23;25.90;;;18.40;;
11008;SDS011;5557;51.670;7.788;2023-05-10T12:18:59;25.43;;;18.20;;
11008;SDS011;5557;51.670;7.788;2023-05-10T12:21:29;28.03;;;18.97;;
11008;SDS011;5557;51.670;7.788;2023-05-10T12:24:03;26.87;;;19.83;;
11008;SDS011;5557;51.670;7.788;2023-05-10T12:26:33;28.67;;;18.47;;
11008;SDS011;5557;51.670;7.788;2023-05-10T12:29:11;32.90;;;20.97;;
11008;SDS011;5557;51.670;7.788;2023-05-10T12:34:36;25.80;;;18.13;;
11008;SDS011;5557;51.670;7.788;2023-05-10T12:37:04;23.57;;;17.27;;
11008;SDS011;5557;51.670;7.788;2023-05-10T12:39:38;31.60;;;18.50;;
11008;SDS011;5557;51.670;7.788;2023-05-10T12:42:09;22.50;;;16.93;;
11008;SDS011;5557;51.670;7.788;2023-05-10T12:44:36;24.20;;;16.87;;
11008;SDS011;5557;51.670;7.788;2023-05-10T12:47:03;27.10;;;19.10;;
11008;SDS011;5557;51.670;7.788;2023-05-10T12:49:31;22.37;;;17.60;;
11008;SDS011;5557;51.670;7.788;2023-05-10T12:51:58;20.30;;;17.00;;
11008;SDS011;5557;51.670;7.788;2023-05-10T12:54:25;23.47;;;18.70;;
11008;SDS011;5557;51.670;7.788;2023-05-10T12:56:52;27.27;;;21.20;;
11008;SDS011;5557;51.670;7.788;2023-05-10T12:59:19;24.17;;;20.53;;
11008;SDS011;5557;51.670;7.788;2023-05-10T13:01:46;27.87;;;21.87;;
11008;SDS011;5557;51.670;7.788;2023-05-10T13:04:13;31.33;;;23.50;;
11008;SDS011;5557;51.670;7.788;2023-05-10T13:06:40;29.53;;;24.17;;
11008;SDS011;5557;51.670;7.788;2023-05-10T13:09:06;31.10;;;24.23;;
11008;SDS011;5557;51.670;7.788;2023-05-10T13:11:33;34.60;;;24.50;;
11008;SDS011;5557;51.670;7.788;2023-05-10T13:14:00;30.67;;;23.03;;
11008;SDS011;5557;51.670;7.788;2023-05-10T13:16:29;31.80;;;23.80;;
11008;SDS011;5557;51.670;7.788;2023-05-10T13:18:56;33.70;;;24.00;;
11008;SDS011;5557;51.670;7.788;2023-05-10T13:21:24;28.97;;;22.30;;
11008;SDS011;5557;51.670;7.788;2023-05-10T13:23:52;32.37;;;22.00;;
11008;SDS011;5557;51.670;7.788;2023-05-10T13:26:19;33.20;;;20.23;;
11008;SDS011;5557;51.670;7.788;2023-05-10T13:28:46;27.40;;;18.00;;
11008;SDS011;5557;51.670;7.788;2023-05-10T13:31:15;21.33;;;14.70;;
11008;SDS011;5557;51.670;7.788;2023-05-10T13:33:42;27.80;;;14.70;;
11008;SDS011;5557;51.670;7.788;2023-05-10T13:36:09;19.40;;;14.93;;
11008;SDS011;5557;51.670;7.788;2023-05-10T13:38:36;15.07;;;12.57;;
11008;SDS011;5557;51.670;7.788;2023-05-10T13:41:03;14.47;;;12.80;;
11008;SDS011;5557;51.670;7.788;2023-05-10T13:43:30;12.70;;;10.20;;
11008;SDS011;5557;51.670;7.788;2023-05-10T13:45:57;16.70;;;12.40;;
11008;SDS011;5557;51.670;7.788;2023-05-10T13:48:24;14.30;;;10.57;;
11008;SDS011;5557;51.670;7.788;2023-05-10T13:50:51;23.10;;;13.30;;
11008;SDS011;5557;51.670;7.788;2023-05-10T13:53:18;15.10;;;11.57;;
11008;SDS011;5557;51.670;7.788;2023-05-10T13:55:45;14.63;;;11.50;;
11008;SDS011;5557;51.670;7.788;2023-05-10T13:58:12;9.90;;;8.80;;
11008;SDS011;5557;51.670;7.788;2023-05-10T14:00:39;11.47;;;8.23;;
11008;SDS011;5557;51.670;7.788;2023-05-10T14:03:06;8.70;;;7.93;;
11008;SDS011;5557;51.670;7.788;2023-05-10T14:05:35;8.40;;;7.77;;
11008;SDS011;5557;51.670;7.788;2023-05-10T14:08:02;11.40;;;9.23;;
11008;SDS011;5557;51.670;7.788;2023-05-10T14:10:30;8.50;;;7.80;;
11008;SDS011;5557;51.670;7.788;2023-05-10T14:12:57;12.67;;;9.50;;
11008;SDS011;5557;51.670;7.788;2023-05-10T14:15:24;11.80;;;9.90;;
11008;SDS011;5557;51.670;7.788;2023-05-10T14:17:51;11.33;;;10.20;;
11008;SDS011;5557;51.670;7.788;2023-05-10T14:20:17;10.27;;;8.60;;
11008;SDS011;5557;51.670;7.788;2023-05-10T14:22:44;9.20;;;8.47;;
11008;SDS011;5557;51.670;7.788;2023-05-10T14:25:11;8.37;;;7.67;;
11008;SDS011;5557;51.670;7.788;2023-05-10T14:27:39;8.13;;;7.43;;
11008;SDS011;5557;51.670;7.788;2023-05-10T14:30:06;8.00;;;7.03;;
11008;SDS011;5557;51.670;7.788;2023-05-10T14:32:34;10.37;;;7.47;;
11008;SDS011;5557;51.670;7.788;2023-05-10T14:35:03;7.10;;;6.60;;
11008;SDS011;5557;51.670;7.788;2023-05-10T14:37:30;14.07;;;6.50;;
11008;SDS011;5557;51.670;7.788;2023-05-10T14:39:57;7.40;;;6.80;;
11008;SDS011;5557;51.670;7.788;2023-05-10T14:42:24;10.90;;;9.40;;
11008;SDS011;5557;51.670;7.788;2023-05-10T14:44:51;9.50;;;8.67;;
11008;SDS011;5557;51.670;7.788;2023-05-10T14:47:18;10.60;;;9.60;;
11008;SDS011;5557;51.670;7.788;2023-05-10T14:49:45;9.50;;;8.53;;
11008;SDS011;5557;51.670;7.788;2023-05-10T14:52:12;14.30;;;10.20;;
11008;SDS011;5557;51.670;7.788;2023-05-10T14:54:40;13.80;;;11.40;;
11008;SDS011;5557;51.670;7.788;2023-05-10T14:57:07;17.47;;;14.27;;
11008;SDS011;5557;51.670;7.788;2023-05-10T14:59:34;15.63;;;13.30;;
11008;SDS011;5557;51.670;7.788;2023-05-10T15:02:01;12.07;;;10.90;;
11008;SDS011;5557;51.670;7.788;2023-05-10T15:04:29;12.47;;;10.87;;
11008;SDS011;5557;51.670;7.788;2023-05-10T15:06:57;14.00;;;11.30;;
11008;SDS011;5557;51.670;7.788;2023-05-10T15:09:25;14.53;;;12.90;;
11008;SDS011;5557;51.670;7.788;2023-05-10T15:11:54;20.00;;;14.33;;
11008;SDS011;5557;51.670;7.788;2023-05-10T15:14:22;11.40;;;10.20;;
11008;SDS011;5557;51.670;7.788;2023-05-10T15:16:49;12.13;;;10.87;;
11008;SDS011;5557;51.670;7.788;2023-05-10T15:19:16;12.67;;;11.37;;
11008;SDS011;5557;51.670;7.788;2023-05-10T15:21:43;12.93;;;11.07;;
11008;SDS011;5557;51.670;7.788;2023-05-10T15:24:10;12.87;;;11.53;;
11008;SDS011;5557;51.670;7.788;2023-05-10T15:26:37;12.37;;;11.07;;